Terminal Aerodrome Forecast
Issued by NWS Boston, MA

Home | Current Version | Previous Version | Text Only | Print | Product List | Glossary On
Versions: 1 2 3 4 5 6 7 8 9 10 11 12 13 14 15 16 17 18 19 20 21 22 23 24 25 26 27 28 29 30 31 32 33 34 35
000
FTUS41 KBOX 271732
TAFORH
TAF
KORH 271732Z 2718/2818 01025G40KT 1/4SM +SN BLSN OVC012
     FM272000 34017KT 3/4SM -SN BLSN OVC010
     FM272200 33016KT 3SM -SN BLSN OVC010
     FM280000 33015KT 6SM -SN BLSN OVC015
     FM280400 33011KT P6SM OVC025
     FM280900 32010KT P6SM OVC035=

USA.gov is the U.S. government's official web portal to all federal, state and local government web resources and services.